Time;durP1;ratioP1;P1;durP2;ratioP2;P2;SDS_P1;SDS_P2;PMS_P1;PMS_P2;Temp;Humidity;BMP_temperature;BMP_pressure;BME280_temperature;BME280_humidity;BME280_pressure;Samples;Min_cycle;Max_cycle;Signal;HPM_P1;HPM_P2
2023/10/02 00:02:07;;;;;;;18.50;12.23;;;20.00;99.90;;;;;;5182439;28;20444;-78
2023/10/02 00:04:41;;;;;;;16.92;11.50;;;20.00;99.90;;;;;;5186139;28;20042;-76
2023/10/02 00:07:22;;;;;;;19.83;12.25;;;20.00;99.90;;;;;;5188266;28;20045;-86
2023/10/02 00:09:54;;;;;;;23.40;12.80;;;20.10;99.90;;;;;;5188032;28;20033;-86
2023/10/02 00:12:28;;;;;;;25.20;13.38;;;20.10;99.90;;;;;;5188430;28;20021;-86
2023/10/02 00:15:11;;;;;;;23.88;13.88;;;20.00;99.90;;;;;;5188229;28;20034;-84
2023/10/02 00:17:48;;;;;;;25.33;13.30;;;20.10;99.90;;;;;;5170819;28;20380;-87
2023/10/02 00:20:22;;;;;;;18.83;12.73;;;20.20;99.90;;;;;;5170616;28;20057;-82
2023/10/02 00:22:55;;;;;;;18.90;13.77;;;20.20;99.90;;;;;;5170593;28;20041;-76
2023/10/02 00:25:28;;;;;;;26.17;13.95;;;20.20;99.90;;;;;;5188345;28;20088;-76
2023/10/02 00:28:00;;;;;;;24.73;12.55;;;20.20;99.90;;;;;;5188123;28;20026;-75
2023/10/02 00:30:36;;;;;;;20.25;12.25;;;20.30;99.90;;;;;;5187454;28;20030;-75
2023/10/02 00:33:11;;;;;;;27.08;13.98;;;20.30;99.90;;;;;;5187178;28;20378;-75
2023/10/02 00:35:50;;;;;;;28.73;13.57;;;20.30;99.90;;;;;;5187456;28;20022;-75
2023/10/02 00:38:23;;;;;;;24.35;13.52;;;20.40;99.90;;;;;;5187902;28;20065;-84
2023/10/02 00:40:56;;;;;;;21.00;12.27;;;20.30;99.90;;;;;;5187778;28;20052;-86
2023/10/02 00:43:36;;;;;;;22.38;14.07;;;20.40;99.90;;;;;;5187828;28;20065;-75
2023/10/02 00:46:23;;;;;;;25.38;13.93;;;20.40;99.90;;;;;;5187734;28;20358;-88
2023/10/02 00:48:54;;;;;;;24.60;13.27;;;20.40;99.90;;;;;;5188058;28;20030;-83
2023/10/02 00:51:27;;;;;;;24.80;13.15;;;20.40;99.90;;;;;;5187705;28;20025;-88
2023/10/02 00:54:23;;;;;;;23.92;13.30;;;20.40;99.90;;;;;;5186934;28;20044;-87
2023/10/02 00:56:51;;;;;;;31.45;13.45;;;20.40;99.90;;;;;;5186451;28;20030;-79
2023/10/02 00:59:25;;;;;;;28.38;13.60;;;20.50;99.90;;;;;;5186831;28;20034;-85
2023/10/02 01:02:05;;;;;;;27.38;13.50;;;20.50;99.90;;;;;;5187277;28;20104;-85
2023/10/02 01:04:36;;;;;;;25.08;14.50;;;20.50;99.90;;;;;;5187098;28;20157;-89
2023/10/02 01:07:15;;;;;;;27.92;15.13;;;20.50;99.90;;;;;;5169497;28;20076;-89
2023/10/02 01:10:07;;;;;;;26.42;14.18;;;20.50;99.90;;;;;;5187337;28;20021;-86
2023/10/02 01:12:43;;;;;;;28.38;13.68;;;20.50;99.90;;;;;;5187379;28;20524;-89
2023/10/02 01:15:19;;;;;;;26.45;13.88;;;20.50;99.90;;;;;;5169371;28;20121;-85
2023/10/02 01:17:52;;;;;;;28.20;14.07;;;20.50;99.90;;;;;;5187473;28;20052;-88
2023/10/02 01:20:45;;;;;;;26.13;13.43;;;20.50;99.90;;;;;;5169164;28;20061;-79
2023/10/02 01:23:22;;;;;;;23.75;13.32;;;20.50;99.90;;;;;;5167418;28;20054;-89
2023/10/02 01:26:00;;;;;;;22.95;13.35;;;20.50;99.90;;;;;;5167196;28;20027;-81
2023/10/02 01:31:35;;;;;;;27.08;12.18;;;20.60;99.90;;;;;;5548192;23;20054;-87
2023/10/02 01:34:33;;;;;;;22.40;12.80;;;20.60;99.90;;;;;;5149485;28;20027;-89
2023/10/02 01:37:36;;;;;;;20.30;12.55;;;20.60;99.90;;;;;;5166862;28;20030;-86
2023/10/02 01:42:52;;;;;;;;;;;20.60;99.90;;;;;;5167603;28;20125;-82
2023/10/02 01:45:34;;;;;;;22.42;10.82;;;20.60;99.90;;;;;;5148530;28;20056;-80
2023/10/02 01:48:15;;;;;;;19.45;11.80;;;20.60;99.90;;;;;;5148543;28;20030;-77
2023/10/02 01:50:48;;;;;;;23.48;10.40;;;20.60;99.90;;;;;;5148216;28;20061;-77
2023/10/02 01:53:33;;;;;;;20.85;12.00;;;20.70;99.90;;;;;;5165540;28;20072;-78
2023/10/02 01:56:11;;;;;;;23.98;11.07;;;20.60;99.90;;;;;;5165432;28;20046;-76
2023/10/02 01:58:52;;;;;;;23.08;11.40;;;20.70;99.90;;;;;;5147581;28;20026;-76
2023/10/02 02:01:24;;;;;;;19.15;11.25;;;20.60;99.90;;;;;;5164892;28;20116;-77
2023/10/02 02:03:55;;;;;;;20.58;11.43;;;20.60;99.90;;;;;;5165591;28;20038;-76
2023/10/02 02:06:29;;;;;;;24.23;10.57;;;20.60;99.90;;;;;;5165926;28;20027;-76
2023/10/02 02:09:00;;;;;;;24.15;11.13;;;20.70;99.90;;;;;;5166004;28;20117;-76
2023/10/02 02:11:34;;;;;;;19.38;10.45;;;20.70;99.90;;;;;;5165748;28;20435;-76
2023/10/02 02:14:10;;;;;;;27.17;10.65;;;20.70;99.90;;;;;;5165901;28;20105;-76
2023/10/02 02:16:46;;;;;;;22.08;10.90;;;20.80;99.90;;;;;;5165723;28;20041;-85
2023/10/02 02:19:18;;;;;;;17.77;10.63;;;20.80;99.90;;;;;;5165787;28;20027;-77
2023/10/02 02:21:49;;;;;;;18.55;10.30;;;20.80;99.90;;;;;;5165309;28;20066;-79
2023/10/02 02:24:20;;;;;;;21.15;11.27;;;20.90;99.90;;;;;;5165599;28;20032;-81
2023/10/02 02:26:57;;;;;;;25.08;11.40;;;20.80;99.90;;;;;;5164777;28;20018;-85
2023/10/02 02:29:28;;;;;;;29.10;10.80;;;20.80;99.90;;;;;;5165283;28;20023;-83
2023/10/02 02:31:59;;;;;;;19.38;9.88;;;20.80;99.90;;;;;;5165303;28;20073;-87
2023/10/02 02:34:30;;;;;;;23.83;10.18;;;20.80;99.90;;;;;;5165442;28;20034;-76
2023/10/02 02:37:01;;;;;;;17.15;10.38;;;20.80;99.90;;;;;;5165290;28;20034;-82
2023/10/02 02:39:37;;;;;;;20.42;10.52;;;20.80;99.90;;;;;;5165112;28;20109;-83
2023/10/02 02:44:49;;;;;;;21.13;11.73;;;20.80;99.90;;;;;;5164231;28;20041;-86
2023/10/02 02:47:24;;;;;;;21.95;11.20;;;20.70;99.90;;;;;;5164179;28;20026;-76
2023/10/02 02:50:00;;;;;;;26.33;12.45;;;20.80;99.90;;;;;;5164240;28;20023;-76
2023/10/02 02:52:32;;;;;;;24.77;11.45;;;20.70;99.90;;;;;;5164721;28;20030;-82
2023/10/02 02:55:13;;;;;;;18.02;11.55;;;20.80;99.90;;;;;;5164462;28;20033;-81
2023/10/02 02:57:45;;;;;;;22.00;12.02;;;20.80;99.90;;;;;;5164648;28;20034;-77
2023/10/02 03:00:31;;;;;;;20.98;12.40;;;20.80;99.90;;;;;;5164781;28;20169;-76
2023/10/02 03:03:29;;;;;;;23.05;12.80;;;20.70;99.90;;;;;;5165041;28;20133;-76
2023/10/02 03:05:58;;;;;;;24.25;11.98;;;20.80;99.90;;;;;;5164488;28;20065;-76
2023/10/02 03:08:39;;;;;;;22.40;12.63;;;20.80;99.90;;;;;;5165037;28;20027;-79
2023/10/02 03:11:10;;;;;;;21.65;10.88;;;20.80;99.90;;;;;;5164896;28;20030;-77
2023/10/02 03:13:41;;;;;;;24.65;11.90;;;20.80;99.90;;;;;;5165023;28;20080;-80
2023/10/02 03:16:14;;;;;;;18.33;12.20;;;20.80;99.90;;;;;;5164805;28;20062;-77
2023/10/02 03:18:49;;;;;;;22.58;12.63;;;20.80;99.90;;;;;;5164597;28;20028;-75
2023/10/02 03:21:23;;;;;;;26.15;11.88;;;20.70;99.90;;;;;;5164334;28;20038;-81
2023/10/02 03:23:58;;;;;;;22.83;12.15;;;20.70;99.90;;;;;;5164608;28;20113;-79
2023/10/02 03:29:16;;;;;;;19.85;11.48;;;20.80;99.90;;;;;;5164258;28;20033;-77
2023/10/02 03:31:51;;;;;;;20.83;11.23;;;20.70;99.90;;;;;;5164417;28;20141;-76
2023/10/02 03:34:27;;;;;;;22.70;11.40;;;20.80;99.90;;;;;;5165133;28;20053;-76
2023/10/02 03:40:00;;;;;;;22.85;11.10;;;20.70;99.90;;;;;;5168029;28;20359;-78
2023/10/02 03:42:31;;;;;;;18.67;11.55;;;20.70;99.90;;;;;;5167603;28;20375;-76
2023/10/02 03:45:06;;;;;;;22.55;10.95;;;20.70;99.90;;;;;;5166806;28;20108;-77
2023/10/02 03:47:37;;;;;;;22.83;11.13;;;20.70;99.90;;;;;;5166913;28;20026;-76
2023/10/02 03:50:17;;;;;;;19.15;10.07;;;20.70;99.90;;;;;;5167285;28;20023;-76
2023/10/02 03:53:12;;;;;;;17.52;10.52;;;20.60;99.90;;;;;;5167662;28;20026;-77
2023/10/02 03:55:39;;;;;;;17.63;10.73;;;20.60;99.90;;;;;;5168574;28;20034;-76
2023/10/02 03:58:10;;;;;;;19.20;10.27;;;20.60;99.90;;;;;;5168728;28;20026;-78
2023/10/02 04:00:46;;;;;;;20.42;10.55;;;20.60;99.90;;;;;;5168425;28;20494;-76
2023/10/02 04:03:18;;;;;;;18.92;11.05;;;20.50;99.90;;;;;;5168298;28;20081;-78
2023/10/02 04:05:49;;;;;;;15.05;10.15;;;20.60;99.90;;;;;;5168321;28;20093;-77
2023/10/02 04:10:55;;;;;;;18.27;9.23;;;20.50;99.90;;;;;;5168356;28;20077;-77
2023/10/02 04:13:34;;;;;;;21.95;9.27;;;20.50;99.90;;;;;;5168173;28;20027;-83
2023/10/02 04:19:01;;;;;;;14.27;7.97;;;20.50;99.90;;;;;;5168144;28;20081;-77
2023/10/02 04:21:33;;;;;;;18.85;8.13;;;20.50;99.90;;;;;;5168157;28;20022;-76
2023/10/02 04:24:09;;;;;;;16.83;8.30;;;20.50;99.90;;;;;;5168291;28;20022;-76
2023/10/02 04:26:48;;;;;;;19.70;7.72;;;20.40;99.90;;;;;;5168286;28;20046;-77
2023/10/02 04:32:12;;;;;;;16.33;8.10;;;20.50;99.90;;;;;;5166952;28;20699;-79
2023/10/02 04:34:56;;;;;;;16.40;8.60;;;20.50;99.90;;;;;;5167386;28;20018;-78
2023/10/02 04:37:31;;;;;;;18.73;8.57;;;20.60;99.90;;;;;;5166583;28;20032;-78
2023/10/02 04:40:16;;;;;;;19.13;8.38;;;20.50;99.90;;;;;;5166424;28;20013;-77
2023/10/02 04:43:34;;;;;;;14.50;9.27;;;20.50;99.90;;;;;;5166330;28;20041;-77
2023/10/02 04:45:37;;;;;;;20.25;9.18;;;20.50;99.90;;;;;;5155657;28;20125;-77
2023/10/02 04:48:09;;;;;;;19.63;9.93;;;20.50;99.90;;;;;;5166303;28;20210;-83
2023/10/02 04:50:46;;;;;;;17.58;9.80;;;20.50;99.90;;;;;;5166306;28;20466;-81
2023/10/02 04:53:19;;;;;;;15.13;8.73;;;20.50;99.90;;;;;;5167508;28;20448;-77
2023/10/02 04:56:07;;;;;;;15.40;9.70;;;20.40;99.90;;;;;;5167469;28;20022;-79
2023/10/02 04:58:39;;;;;;;16.23;9.55;;;20.50;99.90;;;;;;5166837;28;20121;-78
2023/10/02 05:01:29;;;;;;;27.48;12.15;;;20.40;99.90;;;;;;5166523;28;20089;-76
2023/10/02 05:04:03;;;;;;;18.17;11.15;;;20.50;99.90;;;;;;5163835;28;20064;-76
2023/10/02 05:06:44;;;;;;;21.02;10.82;;;20.50;99.90;;;;;;5166627;28;20122;-77
2023/10/02 05:11:52;;;;;;;18.70;10.85;;;20.50;99.90;;;;;;5163978;28;20023;-77
2023/10/02 05:14:27;;;;;;;17.85;10.70;;;20.60;99.90;;;;;;5166273;28;20022;-80
2023/10/02 05:17:18;;;;;;;18.40;11.18;;;20.60;99.90;;;;;;5166542;28;20026;-85
2023/10/02 05:20:03;;;;;;;16.20;11.60;;;20.60;99.90;;;;;;5166381;28;20393;-78
2023/10/02 05:22:36;;;;;;;17.58;10.32;;;20.60;99.90;;;;;;5164509;28;20137;-76
2023/10/02 05:25:08;;;;;;;16.25;9.52;;;20.60;99.90;;;;;;5166256;28;20022;-78
2023/10/02 05:27:39;;;;;;;14.15;8.48;;;20.60;99.90;;;;;;5165729;28;20026;-77
2023/10/02 05:30:14;;;;;;;19.38;8.52;;;20.60;99.90;;;;;;5163127;28;20042;-76
2023/10/02 05:32:44;;;;;;;15.93;7.63;;;20.50;99.90;;;;;;5164967;28;20089;-77
2023/10/02 05:37:50;;;;;;;17.45;8.63;;;20.60;99.90;;;;;;5165080;28;20101;-78
2023/10/02 05:48:37;;;;;;;18.58;8.45;;;20.70;99.90;;;;;;5149164;28;20054;-77
2023/10/02 05:51:12;;;;;;;17.42;8.52;;;20.70;99.90;;;;;;5165727;28;20113;-76
2023/10/02 05:53:53;;;;;;;20.48;8.38;;;20.70;99.90;;;;;;5165173;28;20035;-77
2023/10/02 05:56:25;;;;;;;13.10;7.72;;;20.70;99.90;;;;;;5165764;28;20026;-77
2023/10/02 05:58:56;;;;;;;13.73;7.43;;;20.70;99.90;;;;;;5165622;28;20026;-78
2023/10/02 06:01:27;;;;;;;13.15;6.72;;;20.80;99.90;;;;;;5164480;28;20105;-78
2023/10/02 06:03:58;;;;;;;15.82;7.32;;;20.70;99.90;;;;;;5165252;28;20527;-87
2023/10/02 06:06:35;;;;;;;15.18;6.72;;;20.80;99.90;;;;;;5165834;28;20030;-80
2023/10/02 06:09:16;;;;;;;16.20;7.55;;;20.70;99.90;;;;;;5166329;28;20019;-82
2023/10/02 06:12:05;;;;;;;14.00;6.00;;;20.70;99.90;;;;;;5166148;28;20113;-77
2023/10/02 06:14:39;;;;;;;14.27;7.13;;;20.80;99.90;;;;;;5165919;28;20021;-84
2023/10/02 06:17:11;;;;;;;13.95;7.18;;;20.70;99.90;;;;;;5167213;28;20117;-83
2023/10/02 06:19:43;;;;;;;18.40;6.43;;;20.80;99.90;;;;;;5167265;28;20032;-77
2023/10/02 06:22:15;;;;;;;16.45;7.55;;;20.80;99.90;;;;;;5167257;28;20109;-76
2023/10/02 06:24:48;;;;;;;21.48;6.82;;;20.70;99.90;;;;;;5166947;28;20049;-76
2023/10/02 06:27:22;;;;;;;12.43;6.53;;;20.80;99.90;;;;;;5167302;28;20150;-76
2023/10/02 06:29:57;;;;;;;14.27;7.22;;;20.80;99.90;;;;;;5166704;28;20031;-76
2023/10/02 06:32:28;;;;;;;12.43;7.00;;;20.90;99.90;;;;;;5166861;28;20382;-77
2023/10/02 06:35:00;;;;;;;13.70;7.13;;;20.90;99.90;;;;;;5166742;28;20026;-75
2023/10/02 06:37:36;;;;;;;14.48;7.25;;;20.90;99.90;;;;;;5166445;28;20455;-76
2023/10/02 06:40:14;;;;;;;15.20;7.32;;;20.90;99.90;;;;;;5166624;28;20470;-76
2023/10/02 06:42:57;;;;;;;20.55;7.75;;;20.90;99.90;;;;;;5166693;28;20489;-76
2023/10/02 06:45:30;;;;;;;17.60;7.50;;;20.90;99.90;;;;;;5166783;28;20034;-75
2023/10/02 06:48:01;;;;;;;14.48;7.55;;;20.80;99.90;;;;;;5166829;28;20027;-83
2023/10/02 06:50:32;;;;;;;18.30;7.40;;;20.80;99.90;;;;;;5167041;28;20022;-76
2023/10/02 06:53:03;;;;;;;33.47;8.70;;;20.90;99.90;;;;;;5166527;28;20375;-76
2023/10/02 06:55:34;;;;;;;19.75;7.20;;;20.90;99.90;;;;;;5166840;28;20749;-77
2023/10/02 06:58:07;;;;;;;17.83;7.70;;;20.90;99.90;;;;;;5166656;28;20110;-77
2023/10/02 07:01:27;;;;;;;17.42;7.30;;;20.90;99.90;;;;;;5166381;28;20066;-75
2023/10/02 07:03:30;;;;;;;15.90;7.10;;;20.80;99.90;;;;;;5151999;28;20066;-76
2023/10/02 07:06:07;;;;;;;12.02;7.03;;;20.70;99.90;;;;;;5166389;28;20374;-76
2023/10/02 07:08:41;;;;;;;17.92;6.97;;;20.80;99.90;;;;;;5165746;28;20039;-75
2023/10/02 07:11:11;;;;;;;21.23;6.95;;;20.70;99.90;;;;;;5166560;28;20052;-76
2023/10/02 07:13:51;;;;;;;17.08;7.03;;;20.70;99.90;;;;;;5165766;28;20478;-76
2023/10/02 07:16:22;;;;;;;12.30;5.80;;;20.70;99.90;;;;;;5166414;28;20018;-76
2023/10/02 07:18:55;;;;;;;13.73;6.75;;;20.80;99.90;;;;;;5166516;28;20062;-77
2023/10/02 07:21:30;;;;;;;15.75;6.97;;;20.80;99.90;;;;;;5148741;28;20065;-75
2023/10/02 07:24:03;;;;;;;17.40;7.10;;;20.60;99.90;;;;;;5165908;28;20113;-87
2023/10/02 07:26:51;;;;;;;15.10;6.80;;;20.50;99.90;;;;;;5165079;28;20027;-88
2023/10/02 07:29:37;;;;;;;17.33;7.05;;;20.50;99.90;;;;;;5153323;28;20117;-87
2023/10/02 07:32:08;;;;;;;15.27;6.30;;;20.50;99.90;;;;;;5165269;28;20085;-86
2023/10/02 07:34:41;;;;;;;14.20;5.95;;;20.40;99.90;;;;;;5165345;28;20054;-88
2023/10/02 07:37:21;;;;;;;16.35;6.40;;;20.50;99.90;;;;;;5165466;28;20025;-87
2023/10/02 07:39:56;;;;;;;21.50;6.75;;;20.60;99.90;;;;;;5165961;28;20145;-87
2023/10/02 07:42:29;;;;;;;11.23;6.20;;;20.50;99.90;;;;;;5165984;28;20030;-84
2023/10/02 07:48:11;;;;;;;17.65;6.70;;;20.40;99.90;;;;;;5166130;28;20030;-75
2023/10/02 07:50:44;;;;;;;16.45;6.43;;;20.40;99.90;;;;;;5165430;28;20034;-76
2023/10/02 07:53:15;;;;;;;16.42;6.10;;;20.30;99.90;;;;;;5165912;28;20041;-82
2023/10/02 07:55:49;;;;;;;15.23;6.13;;;20.40;99.90;;;;;;5165972;28;20066;-77
2023/10/02 07:58:19;;;;;;;15.60;6.22;;;20.30;99.90;;;;;;5166351;28;20382;-77
2023/10/02 08:00:50;;;;;;;12.05;5.85;;;20.40;99.90;;;;;;5165677;28;20031;-85
2023/10/02 08:03:36;;;;;;;11.63;6.35;;;20.30;99.90;;;;;;5164943;28;20119;-82
2023/10/02 08:06:23;;;;;;;16.80;6.93;;;20.30;99.90;;;;;;5146535;28;20023;-77
2023/10/02 08:11:54;;;;;;;12.98;6.80;;;20.50;99.90;;;;;;5157074;28;20077;-83
2023/10/02 08:14:40;;;;;;;10.73;5.88;;;20.50;99.90;;;;;;5165700;28;20105;-84
2023/10/02 08:17:21;;;;;;;16.20;6.25;;;20.60;99.90;;;;;;5166099;28;20589;-88
2023/10/02 08:19:59;;;;;;;13.63;6.53;;;20.60;99.90;;;;;;5165963;28;20026;-87
2023/10/02 08:22:36;;;;;;;16.80;7.28;;;20.70;99.90;;;;;;5165658;28;20038;-87
2023/10/02 08:42:10;;;;;;;14.55;7.50;;;20.60;99.90;;;;;;5295152;27;20460;-76
2023/10/02 08:44:43;;;;;;;16.52;7.40;;;21.00;99.90;;;;;;5251134;28;20024;-76
2023/10/02 08:47:27;;;;;;;14.13;7.43;;;21.00;99.90;;;;;;5252724;28;20426;-75
2023/10/02 08:50:04;;;;;;;11.75;6.20;;;21.20;99.90;;;;;;5249504;28;20174;-76
2023/10/02 08:52:49;;;;;;;14.02;6.88;;;21.20;99.90;;;;;;5251440;28;20028;-76
2023/10/02 08:55:34;;;;;;;12.85;7.22;;;21.60;99.90;;;;;;5255472;28;20020;-76
2023/10/02 08:58:22;;;;;;;14.38;7.53;;;21.70;99.90;;;;;;5243468;28;20384;-76
2023/10/02 09:06:43;;;;;;;15.45;7.57;;;21.50;99.90;;;;;;5256499;28;20032;-76
2023/10/02 09:09:36;;;;;;;14.05;7.40;;;21.60;99.90;;;;;;5253658;28;20127;-76
2023/10/02 09:12:15;;;;;;;17.52;7.50;;;21.60;99.90;;;;;;5249624;28;20020;-75
2023/10/02 09:14:46;;;;;;;16.85;6.75;;;21.40;99.90;;;;;;5227346;28;20619;-75
2023/10/02 09:17:17;;;;;;;10.73;6.68;;;21.50;99.90;;;;;;5231264;28;20481;-76
2023/10/02 09:20:02;;;;;;;17.38;7.07;;;21.40;99.90;;;;;;5225694;28;20024;-75
2023/10/02 09:22:37;;;;;;;19.23;7.43;;;21.40;99.90;;;;;;5231899;28;20036;-75
2023/10/02 09:28:04;;;;;;;15.40;7.55;;;21.50;99.90;;;;;;5233392;28;20044;-75
2023/10/02 09:33:25;;;;;;;14.57;7.85;;;21.70;99.90;;;;;;5227405;28;20539;-76
2023/10/02 09:36:00;;;;;;;12.32;7.43;;;21.80;99.90;;;;;;5232783;28;20060;-75
2023/10/02 09:38:32;;;;;;;15.63;7.68;;;21.90;99.90;;;;;;5231617;28;20057;-75
2023/10/02 09:43:37;;;;;;;14.45;5.53;;;22.40;99.90;;;;;;5217316;28;20033;-75
2023/10/02 09:46:16;;;;;;;12.57;5.82;;;22.30;99.90;;;;;;5220043;28;20022;-75
2023/10/02 09:49:07;;;;;;;11.10;5.50;;;22.00;99.90;;;;;;5215754;28;20040;-75
2023/10/02 09:52:09;;;;;;;12.43;6.47;;;21.80;99.90;;;;;;5214586;28;20021;-75
2023/10/02 09:55:10;;;;;;;14.35;8.43;;;21.60;99.90;;;;;;5218748;28;20076;-75
2023/10/02 09:57:50;;;;;;;11.55;7.35;;;21.60;99.90;;;;;;5218660;28;20112;-75
2023/10/02 10:00:41;;;;;;;14.23;7.18;;;21.40;99.90;;;;;;5216985;28;20018;-75
2023/10/02 10:03:24;;;;;;;16.15;7.57;;;21.20;99.90;;;;;;5218630;28;20021;-75
2023/10/02 10:06:07;;;;;;;12.18;7.03;;;21.40;99.90;;;;;;5218233;28;20017;-75
2023/10/02 10:11:45;;;;;;;13.40;6.78;;;21.50;99.90;;;;;;5214661;28;20456;-75
2023/10/02 10:14:37;;;;;;;13.10;7.32;;;21.60;99.90;;;;;;5213175;28;20030;-75
2023/10/02 10:17:16;;;;;;;14.45;7.45;;;21.50;99.90;;;;;;5214538;28;20021;-75
2023/10/02 10:22:56;;;;;;;12.73;6.55;;;22.00;99.90;;;;;;5218315;28;20045;-75
2023/10/02 10:25:32;;;;;;;9.95;6.13;;;22.10;99.90;;;;;;5220232;28;20028;-76
2023/10/02 10:35:49;;;;;;;14.18;6.30;;;22.30;99.90;;;;;;5227841;28;20025;-75
2023/10/02 10:38:26;;;;;;;15.48;6.82;;;22.60;99.90;;;;;;5226583;28;20037;-75
2023/10/02 10:41:06;;;;;;;11.30;7.05;;;22.70;99.90;;;;;;5227324;28;20135;-75
2023/10/02 10:43:55;;;;;;;14.38;7.00;;;23.00;99.90;;;;;;5226398;28;20059;-75
2023/10/02 10:46:30;;;;;;;10.35;6.93;;;22.90;99.90;;;;;;5219526;28;20071;-75
2023/10/02 10:49:10;;;;;;;12.95;7.18;;;22.70;99.90;;;;;;5219637;28;20059;-75
2023/10/02 10:51:41;;;;;;;11.95;6.85;;;22.50;99.90;;;;;;5215285;28;20021;-75
2023/10/02 10:54:18;;;;;;;12.18;7.60;;;22.20;99.90;;;;;;5217515;28;20113;-75
2023/10/02 10:57:19;;;;;;;14.65;8.00;;;22.40;99.90;;;;;;5209430;28;20090;-75
2023/10/02 11:00:25;;;;;;;12.55;7.65;;;22.20;99.90;;;;;;5206835;28;20419;-75
2023/10/02 11:02:57;;;;;;;16.50;9.02;;;22.00;99.90;;;;;;5206140;28;20074;-75
2023/10/02 11:05:33;;;;;;;17.83;9.93;;;22.00;99.90;;;;;;5206363;28;20025;-75
2023/10/02 11:08:23;;;;;;;14.23;10.02;;;22.00;99.90;;;;;;5218027;28;20039;-76
2023/10/02 11:11:11;;;;;;;14.40;9.73;;;22.20;99.90;;;;;;5226010;28;20033;-75
2023/10/02 11:13:54;;;;;;;15.75;9.43;;;22.30;99.90;;;;;;5223113;28;20026;-76
2023/10/02 11:16:37;;;;;;;14.02;9.32;;;22.00;99.90;;;;;;5216252;28;20035;-76
2023/10/02 11:19:21;;;;;;;13.27;9.40;;;22.00;99.90;;;;;;5208327;28;20120;-75
2023/10/02 11:22:14;;;;;;;15.65;9.98;;;21.80;99.90;;;;;;5212559;28;20168;-75
2023/10/02 11:24:52;;;;;;;13.90;9.93;;;21.90;99.90;;;;;;5214297;28;20591;-76
2023/10/02 11:27:24;;;;;;;13.63;9.98;;;21.90;99.90;;;;;;5216244;28;20071;-76
2023/10/02 11:30:05;;;;;;;14.32;10.20;;;21.80;99.90;;;;;;5214087;28;20040;-75
2023/10/02 11:33:08;;;;;;;13.80;8.60;;;21.80;99.90;;;;;;5216605;28;20028;-75
2023/10/02 11:35:38;;;;;;;13.25;9.77;;;21.70;99.90;;;;;;5218094;28;20520;-75
2023/10/02 11:38:09;;;;;;;14.23;9.27;;;21.80;99.90;;;;;;5215438;28;20021;-75
2023/10/02 11:40:43;;;;;;;16.95;9.57;;;21.80;99.90;;;;;;5217463;28;20046;-76
2023/10/02 11:43:15;;;;;;;12.40;9.27;;;21.90;99.90;;;;;;5214493;28;20021;-76
2023/10/02 11:45:47;;;;;;;14.75;8.52;;;22.00;99.90;;;;;;5216597;28;20056;-75
2023/10/02 11:48:18;;;;;;;17.55;9.55;;;21.90;99.90;;;;;;5223315;28;20065;-76
2023/10/02 11:50:51;;;;;;;11.55;8.82;;;21.80;99.90;;;;;;5226798;28;20063;-75
2023/10/02 11:53:22;;;;;;;13.32;10.20;;;21.80;99.90;;;;;;5226587;28;20444;-75
2023/10/02 11:55:54;;;;;;;13.60;10.70;;;21.70;99.90;;;;;;5226485;28;20096;-76
2023/10/02 11:58:25;;;;;;;11.80;10.10;;;21.90;99.90;;;;;;5226461;28;20036;-75
2023/10/02 12:00:56;;;;;;;14.23;9.40;;;21.50;99.90;;;;;;5226311;28;20027;-76
2023/10/02 12:03:27;;;;;;;11.52;10.15;;;21.50;99.90;;;;;;5225462;28;20480;-75
2023/10/02 12:05:58;;;;;;;12.68;9.25;;;21.40;99.90;;;;;;5224218;28;20025;-76
2023/10/02 12:08:29;;;;;;;13.75;9.63;;;21.20;99.90;;;;;;5225401;28;20041;-76
2023/10/02 12:11:00;;;;;;;12.63;11.18;;;21.30;99.90;;;;;;5225571;28;20029;-76
2023/10/02 12:13:31;;;;;;;13.32;10.25;;;21.50;99.90;;;;;;5225378;28;20031;-75
2023/10/02 12:16:02;;;;;;;14.45;9.20;;;21.50;99.90;;;;;;5225356;28;20096;-75
2023/10/02 12:18:34;;;;;;;15.57;9.15;;;21.40;99.90;;;;;;5214292;28;20025;-75
2023/10/02 12:21:10;;;;;;;16.30;8.95;;;21.50;99.90;;;;;;5205355;28;20057;-76
2023/10/02 12:23:43;;;;;;;11.48;9.32;;;21.50;99.90;;;;;;5205429;28;20018;-76
2023/10/02 12:26:15;;;;;;;12.32;8.88;;;21.40;99.90;;;;;;5221076;28;20468;-75
2023/10/02 12:28:46;;;;;;;13.60;9.57;;;21.30;99.90;;;;;;5225543;28;20037;-76
2023/10/02 12:31:19;;;;;;;11.77;7.95;;;21.30;99.90;;;;;;5226068;28;20017;-75
2023/10/02 12:33:53;;;;;;;14.18;9.32;;;21.20;99.90;;;;;;5226170;28;20371;-76
2023/10/02 12:36:26;;;;;;;13.70;7.88;;;21.20;99.90;;;;;;5218174;28;20026;-76
2023/10/02 12:38:57;;;;;;;14.30;8.23;;;21.10;99.90;;;;;;5215976;28;20041;-76
2023/10/02 12:41:32;;;;;;;18.88;9.15;;;21.10;99.90;;;;;;5213130;28;20115;-76
2023/10/02 12:44:03;;;;;;;16.42;8.10;;;21.00;99.90;;;;;;5211941;28;20354;-75
2023/10/02 12:46:43;;;;;;;15.02;9.05;;;20.90;99.90;;;;;;5214315;28;20472;-75
2023/10/02 12:49:14;;;;;;;13.93;9.82;;;20.90;99.90;;;;;;5215854;28;20111;-75
2023/10/02 12:51:45;;;;;;;16.05;9.88;;;20.90;99.90;;;;;;5214256;28;20112;-75
2023/10/02 12:54:16;;;;;;;14.98;9.18;;;20.80;99.90;;;;;;5217212;28;20022;-76
2023/10/02 12:56:47;;;;;;;15.07;9.73;;;20.90;99.90;;;;;;5212777;28;20069;-76
2023/10/02 12:59:18;;;;;;;11.38;9.55;;;20.80;99.90;;;;;;5214748;28;20136;-76
2023/10/02 13:01:50;;;;;;;12.82;9.65;;;20.90;99.90;;;;;;5214175;28;20454;-74
2023/10/02 13:04:21;;;;;;;14.23;9.98;;;21.00;99.90;;;;;;5211981;28;20052;-76
2023/10/02 13:06:52;;;;;;;12.85;9.65;;;21.20;99.90;;;;;;5211597;28;20025;-75
2023/10/02 13:09:27;;;;;;;12.93;9.88;;;21.50;99.90;;;;;;5214575;28;20037;-75
2023/10/02 13:11:58;;;;;;;14.82;8.18;;;21.80;99.90;;;;;;5203945;28;20068;-74
2023/10/02 13:14:30;;;;;;;11.82;7.20;;;21.80;99.90;;;;;;5204555;28;20854;-74
2023/10/02 13:17:02;;;;;;;12.45;6.85;;;21.60;99.90;;;;;;5208718;28;20101;-74
2023/10/02 13:19:33;;;;;;;10.93;7.18;;;21.50;99.90;;;;;;5208602;28;20515;-74
2023/10/02 13:22:04;;;;;;;10.73;7.72;;;21.90;99.90;;;;;;5208924;28;20050;-75
2023/10/02 13:24:35;;;;;;;12.80;7.65;;;21.70;99.90;;;;;;5226238;28;20091;-74
2023/10/02 13:27:06;;;;;;;9.60;7.10;;;21.60;99.90;;;;;;5229096;28;20033;-74
2023/10/02 13:29:37;;;;;;;11.05;7.47;;;21.70;99.90;;;;;;5228952;28;20032;-75
2023/10/02 13:32:07;;;;;;;13.68;6.63;;;21.60;99.90;;;;;;5229132;28;20029;-75
2023/10/02 13:34:38;;;;;;;12.20;7.43;;;21.70;99.90;;;;;;5229375;28;20485;-73
2023/10/02 13:37:11;;;;;;;17.10;7.22;;;22.00;99.90;;;;;;5228325;28;20052;-75
2023/10/02 13:39:42;;;;;;;13.30;6.70;;;21.70;99.90;;;;;;5207820;28;20038;-74
2023/10/02 13:42:14;;;;;;;13.68;6.30;;;21.80;99.90;;;;;;5208643;28;20048;-74
2023/10/02 13:44:45;;;;;;;13.68;6.15;;;22.00;99.90;;;;;;5226384;28;20025;-74
2023/10/02 13:47:16;;;;;;;12.40;6.82;;;21.90;99.90;;;;;;5228371;28;20036;-74
2023/10/02 13:49:47;;;;;;;10.20;5.80;;;22.10;99.90;;;;;;5228357;28;20562;-74
2023/10/02 13:52:18;;;;;;;14.32;5.88;;;22.30;99.90;;;;;;5227961;28;20051;-75
2023/10/02 13:54:50;;;;;;;12.75;6.20;;;22.50;99.90;;;;;;5227326;28;20017;-75
2023/10/02 13:57:22;;;;;;;12.25;5.72;;;22.40;99.90;;;;;;5225244;28;20072;-75
2023/10/02 13:59:53;;;;;;;12.65;6.13;;;22.40;99.90;;;;;;5228126;28;20029;-74
2023/10/02 14:02:25;;;;;;;8.68;5.60;;;22.40;99.90;;;;;;5228570;28;20017;-75
2023/10/02 14:04:55;;;;;;;11.68;6.25;;;22.40;99.90;;;;;;5227624;28;20032;-75
2023/10/02 14:07:26;;;;;;;10.05;6.70;;;22.60;99.90;;;;;;5228896;28;20460;-74
2023/10/02 14:09:57;;;;;;;9.52;6.60;;;22.30;99.90;;;;;;5227740;28;20036;-76
2023/10/02 14:12:28;;;;;;;13.55;7.20;;;22.10;99.90;;;;;;5228663;28;20029;-75
2023/10/02 14:14:59;;;;;;;10.88;6.22;;;22.10;99.90;;;;;;5228835;28;20033;-75
2023/10/02 14:17:35;;;;;;;14.43;6.95;;;22.00;99.90;;;;;;5228455;28;20046;-75
2023/10/02 14:20:14;;;;;;;11.55;7.00;;;21.90;99.90;;;;;;5229401;28;20114;-75
2023/10/02 14:22:50;;;;;;;17.83;7.07;;;21.80;99.90;;;;;;5229181;28;20027;-75
2023/10/02 14:25:23;;;;;;;12.07;7.03;;;21.80;99.90;;;;;;5229216;28;20033;-75
2023/10/02 14:27:55;;;;;;;11.32;7.10;;;21.70;99.90;;;;;;5223739;28;20032;-75
2023/10/02 14:30:25;;;;;;;13.07;6.63;;;21.60;99.90;;;;;;5227550;28;20380;-75
2023/10/02 14:33:00;;;;;;;11.93;7.18;;;21.70;99.90;;;;;;5229023;28;20025;-75
2023/10/02 14:35:31;;;;;;;13.52;7.55;;;21.80;99.90;;;;;;5227758;28;20047;-75
2023/10/02 14:38:03;;;;;;;11.10;6.97;;;21.60;99.90;;;;;;5228905;28;20025;-75
2023/10/02 14:40:34;;;;;;;11.65;6.50;;;21.60;99.90;;;;;;5228367;28;20057;-75
2023/10/02 14:43:05;;;;;;;8.88;6.85;;;21.70;99.90;;;;;;5228681;28;20479;-76
2023/10/02 14:45:36;;;;;;;11.02;7.15;;;21.70;99.90;;;;;;5227095;28;20504;-75